Monday, December 18, 2017, 5:58 AM EST
Back to Local

KAVP, Wilkes-barre/scranton International

Location: Pittston, PA, United States Lat: 41.333
Local Time: 5:58 AM EST (10:58 GMT) Lon: -75.733
Time Zone: US/Eastern Elev: 961 ft

Show me the last for .
Show Decoded

2017-12-18 04:54 METAR KAVP 180954Z 00000KT 6SM BR BKN043 OVC050 M01/M02 A3008 RMK AO2 SLP192
                 T10061022 =
2017-12-18 03:54 METAR KAVP 180854Z 00000KT 7SM OVC045 00/M03 A3009 RMK AO2 SLP197 T00001028
                 58004 =
2017-12-18 02:54 METAR KAVP 180754Z 00000KT 7SM OVC049 00/M03 A3011 RMK AO2 SLP203 T00001028 =
2017-12-18 01:54 METAR KAVP 180654Z 00000KT 7SM BKN039 OVC060 M01/M03 A3010 RMK AO2 SLP201
                 T10061028 =
2017-12-18 00:54 METAR KAVP 180554Z 00000KT 7SM OVC032 00/M03 A3010 RMK AO2 SLP201 T00001033
                 10000 21011 56015 =
2017-12-17 23:54 METAR KAVP 180454Z 00000KT 7SM BKN095 OVC120 M01/M03 A3012 RMK AO2 SLP207
                 T10061033 400001033 =
2017-12-17 22:54 METAR KAVP 180354Z 00000KT 7SM BKN120 M01/M04 A3013 RMK AO2 SLP211 T10061039 =
2017-12-17 21:54 METAR KAVP 180254Z 00000KT 7SM FEW120 M01/M04 A3015 RMK AO2 SLP217 T10111039
                 58014 =
2017-12-17 20:54 METAR KAVP 180154Z 04003KT 7SM BKN050 OVC120 M01/M04 A3016 RMK AO2 SLP220
                 T10061039 =
2017-12-17 19:54 METAR KAVP 180054Z 00000KT 6SM HZ OVC050 M01/M04 A3018 RMK AO2 SLP229 T10111039
                 =
2017-12-17 18:54 METAR KAVP 172354Z 00000KT 7SM CLR M01/M04 A3019 RMK AO2 SLP231 T10111044 10000
                 21011 53006 =
2017-12-17 17:54 METAR KAVP 172254Z 00000KT 7SM FEW120 M01/M04 A3018 RMK AO2 SLP229 T10061044 =
2017-12-17 16:54 METAR KAVP 172154Z 00000KT 8SM CLR M01/M04 A3017 RMK AO2 SLP226 T10061044 =
2017-12-17 15:54 METAR KAVP 172054Z 00000KT 7SM CLR M01/M05 A3017 RMK AO2 SLP225 T10061050 56010
                 =
2017-12-17 14:54 METAR KAVP 171954Z 00000KT 7SM CLR 00/M04 A3018 RMK AO2 SLP228 T00001044 =
2017-12-17 13:54 METAR KAVP 171854Z 02003KT 7SM CLR 00/M05 A3018 RMK AO2 SLP229 T00001050 =
2017-12-17 12:54 METAR KAVP 171754Z 00000KT 8SM CLR M01/M05 A3020 RMK AO2 SLP235 T10061050 11006
                 21028 58016 =
2017-12-17 11:54 METAR KAVP 171654Z 00000KT 9SM CLR M01/M06 A3022 RMK AO2 SLP242 T10111056 =
2017-12-17 10:54 METAR KAVP 171554Z 01004KT 8SM SCT038 M02/M06 A3023 RMK AO2 SLP247 T10171061 =
2017-12-17 09:54 METAR KAVP 171454Z 04004KT 8SM OVC038 M02/M06 A3025 RMK AO2 SLP251 T10221061
                 52004 =
2017-12-17 08:54 METAR KAVP 171354Z 00000KT 8SM OVC030 M03/M06 A3024 RMK AO2 SLP251 T10281061 =
2017-12-17 07:54 METAR KAVP 171254Z 02003KT 9SM OVC028 M03/M06 A3024 RMK AO2 SLP248 T10281061 =
2017-12-17 06:54 METAR KAVP 171154Z 00000KT 9SM OVC026 M03/M06 A3023 RMK AO2 SLP247 70001
                 T10281061 11022 21033 53005 =

Support USWX by starting your Amazon purchase here.